Time;durP1;ratioP1;P1;durP2;ratioP2;P2;SDS_P1;SDS_P2;PMS_P1;PMS_P2;Temp;Humidity;BMP_temperature;BMP_pressure;BME280_temperature;BME280_humidity;BME280_pressure;Samples;Min_cycle;Max_cycle;Signal;HPM_P1;HPM_P2
2022/09/20 04:02:09;;;;;;;5.07;1.43;;;7.50;96.30;;;;;;5294426;23;21035;-78
2022/09/20 04:04:51;;;;;;;5.07;1.10;;;7.40;96.30;;;;;;4957078;28;20429;-78
2022/09/20 04:07:27;;;;;;;1.10;0.70;;;7.40;96.30;;;;;;4987945;28;20417;-78
2022/09/20 04:10:17;;;;;;;8.90;0.90;;;7.30;96.30;;;;;;4987551;28;20492;-78
2022/09/20 04:13:14;;;;;;;2.70;0.80;;;7.30;96.30;;;;;;4935551;28;20463;-78
2022/09/20 04:15:52;;;;;;;1.47;0.90;;;7.20;96.30;;;;;;4935326;29;20435;-77
2022/09/20 04:18:29;;;;;;;3.10;0.90;;;7.20;96.30;;;;;;4933529;29;20427;-75
2022/09/20 04:26:06;;;;;;;3.03;1.00;;;7.20;96.30;;;;;;5947057;23;20507;-79
2022/09/20 04:28:52;;;;;;;2.17;0.90;;;7.20;96.30;;;;;;4978137;28;20409;-80
2022/09/20 04:31:42;;;;;;;1.33;1.00;;;7.20;96.30;;;;;;4962425;28;20950;-80
2022/09/20 04:37:31;;;;;;;7.77;1.67;;;7.20;96.30;;;;;;4953976;29;20421;-81
2022/09/20 04:40:13;;;;;;;7.63;1.40;;;7.20;96.30;;;;;;4954076;28;20445;-78
2022/09/20 04:43:13;;;;;;;6.90;2.07;;;7.20;96.30;;;;;;4953770;28;20455;-79
2022/09/20 04:46:01;;;;;;;4.47;1.67;;;7.20;96.30;;;;;;4953866;28;20485;-76
2022/09/20 04:48:51;;;;;;;6.17;2.03;;;7.20;96.30;;;;;;4953645;28;20387;-78
2022/09/20 04:51:50;;;;;;;5.43;2.37;;;7.20;96.30;;;;;;4953651;28;20930;-75
2022/09/20 04:54:47;;;;;;;5.53;2.60;;;7.20;96.30;;;;;;4953643;29;20538;-75
2022/09/20 04:57:52;;;;;;;13.93;2.93;;;7.20;96.30;;;;;;4968885;28;20424;-75
2022/09/20 05:00:20;;;;;;;3.60;2.70;;;7.20;96.30;;;;;;4972689;28;20479;-76
2022/09/20 05:03:23;;;;;;;6.37;3.00;;;7.20;96.30;;;;;;4976098;28;20458;-78
2022/09/20 05:05:55;;;;;;;9.33;3.07;;;7.20;96.30;;;;;;4976190;28;20913;-75
2022/09/20 05:08:43;;;;;;;4.43;2.93;;;7.20;96.30;;;;;;4976070;28;20397;-77
2022/09/20 05:11:20;;;;;;;5.40;3.10;;;7.20;96.30;;;;;;4956665;29;20444;-77
2022/09/20 05:14:15;;;;;;;5.23;2.60;;;7.20;96.30;;;;;;4955597;29;21024;-76
2022/09/20 05:16:59;;;;;;;10.00;3.20;;;7.20;96.30;;;;;;4956870;29;20395;-78
2022/09/20 05:19:53;;;;;;;4.13;2.40;;;7.20;96.30;;;;;;4956478;28;20415;-77
2022/09/20 05:23:05;;;;;;;4.30;1.83;;;7.10;96.30;;;;;;4956501;28;20429;-75
2022/09/20 05:26:12;;;;;;;4.63;1.87;;;7.10;96.30;;;;;;4956696;28;20833;-77
2022/09/20 05:28:44;;;;;;;2.60;1.80;;;7.10;96.30;;;;;;4934297;28;20454;-77
2022/09/20 05:31:27;;;;;;;6.70;2.30;;;7.20;96.30;;;;;;4955213;28;20434;-74
2022/09/20 05:34:16;;;;;;;5.63;2.60;;;7.20;96.30;;;;;;4956313;29;20457;-74
2022/09/20 05:36:58;;;;;;;10.37;2.73;;;7.30;96.30;;;;;;4956552;28;20395;-76
2022/09/20 05:39:40;;;;;;;7.90;3.10;;;7.30;96.30;;;;;;4955119;29;20922;-78
2022/09/20 05:42:11;;;;;;;12.83;3.50;;;7.30;96.30;;;;;;4986353;28;20487;-78
2022/09/20 05:44:58;;;;;;;5.60;3.00;;;7.30;96.30;;;;;;4994228;28;20428;-77
2022/09/20 05:47:52;;;;;;;6.60;3.40;;;7.30;96.30;;;;;;4995056;28;20885;-76
2022/09/20 05:50:45;;;;;;;8.30;3.10;;;7.40;96.30;;;;;;4994931;28;20960;-77
2022/09/20 05:53:35;;;;;;;4.97;3.10;;;7.30;96.30;;;;;;4994570;28;20955;-76
2022/09/20 05:56:29;;;;;;;3.93;2.30;;;7.30;96.30;;;;;;4993645;28;20420;-75
2022/09/20 05:59:24;;;;;;;5.27;2.73;;;7.30;96.30;;;;;;4994542;28;20397;-76
2022/09/20 06:02:28;;;;;;;3.80;2.40;;;7.30;96.30;;;;;;4973755;28;20443;-76
2022/09/20 06:05:16;;;;;;;3.63;2.70;;;7.40;96.30;;;;;;4994724;28;20404;-76
2022/09/20 06:08:13;;;;;;;3.23;1.50;;;7.30;96.30;;;;;;4993259;28;20445;-75
2022/09/20 06:10:53;;;;;;;3.57;1.83;;;7.10;96.30;;;;;;4994431;28;20425;-78
2022/09/20 06:13:49;;;;;;;5.27;1.97;;;7.00;96.30;;;;;;4993989;28;20936;-80
2022/09/20 06:16:30;;;;;;;4.57;2.20;;;7.10;96.30;;;;;;4993292;28;20417;-81
2022/09/20 06:19:19;;;;;;;11.23;2.37;;;7.10;96.30;;;;;;4994472;28;20397;-77
2022/09/20 06:21:50;;;;;;;7.60;2.70;;;7.10;96.30;;;;;;4994558;28;20429;-77
2022/09/20 06:24:22;;;;;;;10.33;4.17;;;7.20;96.30;;;;;;4994537;28;20443;-77
2022/09/20 06:26:52;;;;;;;11.50;3.60;;;7.20;96.30;;;;;;4993839;28;20428;-80
2022/09/20 06:29:27;;;;;;;9.13;3.20;;;7.30;96.30;;;;;;4995535;28;20417;-80
2022/09/20 06:31:53;;;;;;;9.37;3.90;;;7.30;96.30;;;;;;4995517;28;20431;-80
2022/09/20 06:34:18;;;;;;;8.17;3.20;;;7.40;96.30;;;;;;4994494;28;20808;-78
2022/09/20 06:42:36;;;;;;;9.57;3.53;;;7.50;96.30;;;;;;4975639;28;20771;-82
2022/09/20 06:45:02;;;;;;;9.83;2.97;;;7.50;96.30;;;;;;4975033;28;20787;-78
2022/09/20 06:47:27;;;;;;;9.80;3.90;;;7.40;96.30;;;;;;4975148;28;20441;-78
2022/09/20 06:49:54;;;;;;;11.77;4.00;;;7.50;96.30;;;;;;4989710;28;20175;-78
2022/09/20 06:52:21;;;;;;;10.73;3.70;;;7.50;96.30;;;;;;4989792;28;20208;-78
2022/09/20 06:54:50;;;;;;;10.27;3.40;;;7.50;96.30;;;;;;4975170;28;20488;-78
2022/09/20 06:57:20;;;;;;;6.87;3.00;;;7.50;96.30;;;;;;4974791;28;20418;-81
2022/09/20 06:59:45;;;;;;;8.50;3.30;;;7.50;96.30;;;;;;4989797;28;20509;-78
2022/09/20 07:02:11;;;;;;;12.73;3.10;;;7.60;96.30;;;;;;4974890;28;20517;-79
2022/09/20 07:04:36;;;;;;;9.47;3.07;;;7.60;96.30;;;;;;4974850;28;20642;-81
2022/09/20 07:07:04;;;;;;;12.97;3.13;;;7.70;96.30;;;;;;4989921;28;20201;-79
2022/09/20 07:09:30;;;;;;;13.60;4.00;;;7.70;96.30;;;;;;4989690;28;20186;-79
2022/09/20 07:11:58;;;;;;;10.10;3.17;;;7.80;96.30;;;;;;4989951;28;20565;-79
2022/09/20 07:14:25;;;;;;;8.13;4.07;;;8.00;96.30;;;;;;4989789;28;20206;-79
2022/09/20 07:16:50;;;;;;;13.90;3.60;;;8.10;96.30;;;;;;4974781;28;20413;-78
2022/09/20 07:19:16;;;;;;;14.23;5.47;;;8.10;96.30;;;;;;4974545;28;20475;-78
2022/09/20 07:21:41;;;;;;;8.43;4.27;;;8.20;96.30;;;;;;4974592;28;20198;-79
2022/09/20 07:24:07;;;;;;;11.10;4.43;;;8.20;96.30;;;;;;4973978;28;20178;-80
2022/09/20 07:26:32;;;;;;;8.93;3.47;;;8.30;96.30;;;;;;4989867;28;20198;-78
2022/09/20 07:28:59;;;;;;;10.30;4.50;;;8.40;96.30;;;;;;4974888;28;20181;-79
2022/09/20 07:31:26;;;;;;;9.70;4.20;;;8.40;96.30;;;;;;4974877;28;20218;-78
2022/09/20 07:33:52;;;;;;;10.07;5.37;;;9.10;96.30;;;;;;4975173;28;20457;-81
2022/09/20 07:36:17;;;;;;;5.67;3.90;;;10.60;96.30;;;;;;4988804;28;20436;-79
2022/09/20 07:38:47;;;;;;;7.83;2.90;;;11.50;96.30;;;;;;4974126;28;20174;-78
2022/09/20 07:41:13;;;;;;;7.10;2.90;;;11.40;96.30;;;;;;4997328;28;20704;-78
2022/09/20 07:43:38;;;;;;;9.10;2.57;;;11.00;96.30;;;;;;4975572;28;20477;-83
2022/09/20 07:46:04;;;;;;;7.50;2.93;;;10.90;96.30;;;;;;4954893;28;20167;-80
2022/09/20 07:48:32;;;;;;;6.00;2.57;;;10.80;96.30;;;;;;4954645;28;20669;-78
2022/09/20 07:51:02;;;;;;;6.70;2.60;;;10.90;96.30;;;;;;4955523;28;20522;-81
2022/09/20 07:53:28;;;;;;;4.57;2.07;;;10.80;96.30;;;;;;4955664;28;20965;-81
2022/09/20 07:56:04;;;;;;;5.47;2.90;;;10.40;96.30;;;;;;4953721;29;20407;-77
2022/09/20 07:58:32;;;;;;;5.73;2.30;;;10.20;96.30;;;;;;4971012;28;20174;-79
2022/09/20 08:01:02;;;;;;;3.97;1.70;;;10.10;96.30;;;;;;4974260;28;20556;-81
2022/09/20 08:03:30;;;;;;;3.90;1.80;;;9.80;96.30;;;;;;4974348;28;20398;-80
2022/09/20 08:06:04;;;;;;;12.20;2.33;;;9.60;96.30;;;;;;4974190;28;20420;-78
2022/09/20 08:08:39;;;;;;;7.43;2.03;;;9.50;96.30;;;;;;4974289;28;20424;-80
2022/09/20 08:11:07;;;;;;;5.50;2.33;;;9.30;96.30;;;;;;4971758;28;20485;-79
2022/09/20 08:13:37;;;;;;;5.37;2.40;;;9.30;96.30;;;;;;4974135;28;20452;-79
2022/09/20 08:16:05;;;;;;;6.30;1.97;;;9.30;96.30;;;;;;4973133;28;20425;-80
2022/09/20 08:18:31;;;;;;;8.70;2.37;;;9.30;96.30;;;;;;4953882;28;20421;-81
2022/09/20 08:21:05;;;;;;;5.73;1.93;;;9.30;96.30;;;;;;4955448;28;21152;-81
2022/09/20 08:23:37;;;;;;;5.47;1.67;;;9.20;96.30;;;;;;4953867;29;20649;-80
2022/09/20 08:26:04;;;;;;;5.77;1.90;;;9.00;96.30;;;;;;4954878;28;20493;-80
2022/09/20 08:28:30;;;;;;;4.33;1.67;;;9.00;96.30;;;;;;4962332;28;20432;-80
2022/09/20 08:31:11;;;;;;;3.60;1.80;;;8.90;96.30;;;;;;4973361;28;20441;-81
2022/09/20 08:33:37;;;;;;;3.40;1.47;;;8.90;96.30;;;;;;4973472;28;20198;-81
2022/09/20 08:36:04;;;;;;;6.00;2.30;;;9.00;96.30;;;;;;4960885;28;20473;-81
2022/09/20 08:38:33;;;;;;;10.43;2.70;;;9.10;96.30;;;;;;4959155;28;20182;-81
2022/09/20 08:41:04;;;;;;;3.70;2.10;;;9.20;96.30;;;;;;4969133;28;20494;-80
2022/09/20 08:43:35;;;;;;;7.93;2.20;;;9.30;96.30;;;;;;4996387;28;20424;-80
2022/09/20 08:46:03;;;;;;;3.67;2.17;;;9.40;96.30;;;;;;4997762;28;20469;-80
2022/09/20 08:48:32;;;;;;;6.57;2.00;;;9.40;96.30;;;;;;4994107;28;20796;-80
2022/09/20 08:51:00;;;;;;;8.30;2.27;;;9.40;96.30;;;;;;4977504;28;20524;-81
2022/09/20 08:53:27;;;;;;;6.97;2.10;;;9.40;96.30;;;;;;4976612;28;20472;-80
2022/09/20 08:55:56;;;;;;;7.53;2.50;;;9.70;96.30;;;;;;4975651;28;20422;-80
2022/09/20 08:58:22;;;;;;;3.20;1.87;;;10.10;96.30;;;;;;4972743;28;20507;-78
2022/09/20 09:00:48;;;;;;;6.43;2.10;;;10.50;96.30;;;;;;4977114;28;20445;-77
2022/09/20 09:03:17;;;;;;;5.93;1.63;;;10.30;96.30;;;;;;4976003;28;20410;-78
2022/09/20 09:05:46;;;;;;;6.90;1.50;;;10.40;96.30;;;;;;4977018;28;20689;-80
2022/09/20 09:08:16;;;;;;;7.73;3.10;;;10.60;96.30;;;;;;4975700;28;20429;-78
2022/09/20 09:10:45;;;;;;;4.07;1.80;;;10.70;96.30;;;;;;4962186;28;20454;-79
2022/09/20 09:13:20;;;;;;;3.37;1.47;;;10.80;96.30;;;;;;4957457;28;20544;-79
2022/09/20 09:15:51;;;;;;;6.63;2.37;;;10.70;96.30;;;;;;4956422;28;20445;-78
2022/09/20 09:18:18;;;;;;;5.57;1.77;;;10.70;96.30;;;;;;4956351;28;20411;-81
2022/09/20 09:20:45;;;;;;;3.30;1.73;;;10.50;96.30;;;;;;4973175;28;20445;-78
2022/09/20 09:23:24;;;;;;;3.90;2.17;;;10.40;96.30;;;;;;4972957;28;20449;-82
2022/09/20 09:25:51;;;;;;;2.60;1.87;;;10.10;96.30;;;;;;4967970;28;20418;-80
2022/09/20 09:28:24;;;;;;;3.70;2.30;;;9.80;96.30;;;;;;4958304;28;20946;-77
2022/09/20 09:30:50;;;;;;;3.43;2.27;;;9.60;96.30;;;;;;4974116;28;20512;-78
2022/09/20 09:33:26;;;;;;;4.07;1.90;;;9.50;96.30;;;;;;4975209;28;20700;-81
2022/09/20 09:36:03;;;;;;;3.50;2.50;;;9.40;96.30;;;;;;4975320;28;20147;-76
2022/09/20 09:38:32;;;;;;;3.47;2.30;;;9.30;96.30;;;;;;4975052;28;20402;-76
2022/09/20 09:41:00;;;;;;;4.90;2.53;;;9.20;96.30;;;;;;4980969;28;20968;-77
2022/09/20 09:43:34;;;;;;;13.73;2.50;;;9.00;96.30;;;;;;4975531;28;20430;-77
2022/09/20 09:46:24;;;;;;;5.10;2.97;;;9.10;96.30;;;;;;4973944;28;20563;-78
2022/09/20 09:49:14;;;;;;;4.70;2.90;;;9.30;96.30;;;;;;4975424;28;20473;-78
2022/09/20 09:51:43;;;;;;;7.90;2.80;;;9.50;96.30;;;;;;4974172;28;20445;-78
2022/09/20 09:54:18;;;;;;;6.00;2.70;;;9.70;96.30;;;;;;4974218;28;20543;-78
2022/09/20 09:57:19;;;;;;;9.30;3.33;;;9.90;96.30;;;;;;4975517;28;20396;-79
2022/09/20 10:00:23;;;;;;;5.80;3.30;;;10.00;96.30;;;;;;4974145;28;20413;-79
2022/09/20 10:03:16;;;;;;;7.03;3.60;;;10.50;96.30;;;;;;4973708;28;20779;-79
2022/09/20 10:06:06;;;;;;;6.40;2.93;;;11.20;96.30;;;;;;4975369;28;20498;-79
2022/09/20 10:09:00;;;;;;;4.23;2.30;;;11.80;96.30;;;;;;4974450;28;20398;-79
2022/09/20 10:11:39;;;;;;;7.10;2.77;;;12.00;96.30;;;;;;4974244;28;20437;-78
2022/09/20 10:14:16;;;;;;;12.43;3.23;;;12.40;96.30;;;;;;4975590;28;20797;-79
2022/09/20 10:16:56;;;;;;;4.17;2.80;;;13.10;96.30;;;;;;4977258;28;20407;-82
2022/09/20 10:19:25;;;;;;;6.23;2.50;;;13.20;96.30;;;;;;4975920;28;20504;-81
2022/09/20 10:36:15;;;;;;;4.73;2.40;;;10.30;96.30;;;;;;4942340;28;20822;-82
2022/09/20 11:10:52;;;;;;;11.47;3.37;;;12.90;96.30;;;;;;5726126;23;20482;-78
2022/09/20 11:13:33;;;;;;;7.70;3.40;;;13.70;96.30;;;;;;4954469;28;20454;-79
2022/09/20 11:16:14;;;;;;;6.00;3.10;;;14.10;96.30;;;;;;4974284;28;20394;-80
2022/09/20 11:18:53;;;;;;;3.87;2.00;;;13.70;96.30;;;;;;4974128;28;20390;-79
2022/09/20 11:21:27;;;;;;;9.33;2.43;;;12.70;96.30;;;;;;4973680;28;20425;-78
2022/09/20 11:24:24;;;;;;;4.97;2.57;;;12.40;96.30;;;;;;4988581;28;20421;-79
2022/09/20 11:26:56;;;;;;;6.03;2.40;;;12.10;96.30;;;;;;4988567;28;20418;-78
2022/09/20 11:29:36;;;;;;;3.40;2.30;;;11.90;96.30;;;;;;4988333;28;20414;-80
2022/09/20 11:32:14;;;;;;;6.80;3.10;;;12.50;96.30;;;;;;4973673;28;20862;-78
2022/09/20 11:35:00;;;;;;;5.97;2.70;;;13.80;96.30;;;;;;4988493;28;20449;-79
2022/09/20 11:37:32;;;;;;;6.53;2.50;;;14.40;96.30;;;;;;4973714;28;20390;-83
2022/09/20 11:40:11;;;;;;;5.60;2.77;;;14.00;96.30;;;;;;4973791;28;20918;-78
2022/09/20 11:42:40;;;;;;;2.70;1.70;;;13.60;96.30;;;;;;4954241;28;20406;-77
2022/09/20 11:45:10;;;;;;;3.63;1.40;;;12.50;96.30;;;;;;4954250;28;20840;-76
2022/09/20 11:47:41;;;;;;;3.67;1.60;;;11.90;96.30;;;;;;4954105;28;21006;-76
2022/09/20 11:50:37;;;;;;;5.60;2.10;;;11.80;96.30;;;;;;4953886;28;20399;-78
2022/09/20 11:53:25;;;;;;;5.93;2.70;;;11.80;96.30;;;;;;4953890;28;20450;-78
2022/09/20 11:56:05;;;;;;;4.13;2.20;;;11.90;96.30;;;;;;4954348;29;20478;-82
2022/09/20 11:58:45;;;;;;;10.97;3.33;;;12.20;96.30;;;;;;4952748;29;20411;-81
2022/09/20 12:01:12;;;;;;;3.37;2.53;;;12.40;96.30;;;;;;4952853;29;20426;-78
2022/09/20 12:03:43;;;;;;;7.43;2.97;;;12.20;96.30;;;;;;4953999;28;20827;-79
2022/09/20 12:06:32;;;;;;;2.50;2.03;;;12.00;96.30;;;;;;4954230;28;20457;-82
2022/09/20 12:09:03;;;;;;;2.40;1.90;;;12.00;96.30;;;;;;4952779;28;20428;-80
2022/09/20 12:11:32;;;;;;;2.30;1.40;;;12.00;96.30;;;;;;4956316;29;20462;-78
2022/09/20 12:14:05;;;;;;;2.60;1.37;;;11.60;96.30;;;;;;4957917;28;20511;-79
2022/09/20 12:16:43;;;;;;;7.03;1.50;;;11.40;96.30;;;;;;4956714;28;20418;-78
2022/09/20 12:19:33;;;;;;;2.47;1.43;;;11.40;96.30;;;;;;4957443;28;20476;-78
2022/09/20 12:21:58;;;;;;;2.23;1.30;;;11.50;96.30;;;;;;4957500;28;20454;-78
2022/09/20 12:24:29;;;;;;;4.17;1.70;;;11.50;96.30;;;;;;4956185;28;20424;-80
2022/09/20 12:27:00;;;;;;;1.77;1.30;;;11.60;96.30;;;;;;4957406;28;20175;-78
2022/09/20 12:29:26;;;;;;;3.83;1.37;;;11.60;96.30;;;;;;4956416;29;20469;-78
2022/09/20 12:31:58;;;;;;;2.97;1.40;;;11.50;96.30;;;;;;4957553;28;20431;-78
2022/09/20 12:34:24;;;;;;;2.30;1.30;;;12.00;96.30;;;;;;4956182;28;20568;-81
2022/09/20 12:36:51;;;;;;;4.40;1.47;;;12.00;96.30;;;;;;4957516;28;20519;-79
2022/09/20 12:39:21;;;;;;;3.13;1.40;;;12.00;96.30;;;;;;4956423;28;20553;-83
2022/09/20 12:42:10;;;;;;;2.40;1.47;;;12.20;96.30;;;;;;4968366;28;20461;-82
2022/09/20 12:44:48;;;;;;;2.73;1.40;;;12.40;96.30;;;;;;4976815;28;20512;-79
2022/09/20 12:47:19;;;;;;;2.47;1.20;;;12.50;96.30;;;;;;4976930;28;20420;-78
2022/09/20 12:52:52;;;;;;;2.83;1.53;;;12.10;96.30;;;;;;4976727;28;20484;-79
2022/09/20 12:55:37;;;;;;;7.53;2.03;;;12.20;96.30;;;;;;4976638;28;20442;-79
2022/09/20 12:58:12;;;;;;;4.03;1.93;;;13.10;96.30;;;;;;4976638;28;20386;-79
2022/09/20 13:00:50;;;;;;;3.33;1.50;;;13.70;96.30;;;;;;4990842;28;20546;-80
2022/09/20 13:03:33;;;;;;;4.93;1.73;;;13.40;96.30;;;;;;4990790;28;20894;-79
2022/09/20 13:06:05;;;;;;;2.83;1.60;;;13.40;96.30;;;;;;4976102;28;20389;-79
2022/09/20 13:08:58;;;;;;;4.40;1.67;;;13.20;96.30;;;;;;4975868;28;20767;-79
2022/09/20 13:11:47;;;;;;;3.83;1.70;;;13.30;96.30;;;;;;4975924;28;20453;-79
2022/09/20 13:14:21;;;;;;;2.60;1.67;;;13.50;96.30;;;;;;4976092;28;20442;-79
2022/09/20 13:17:13;;;;;;;2.53;1.43;;;13.30;96.30;;;;;;4990957;28;20417;-79
2022/09/20 13:19:45;;;;;;;2.40;1.50;;;12.90;96.30;;;;;;4968513;28;20454;-79
2022/09/20 13:22:16;;;;;;;2.60;1.80;;;12.60;96.30;;;;;;4974196;28;20432;-78
2022/09/20 13:24:45;;;;;;;6.00;1.47;;;12.30;96.30;;;;;;4990966;28;20496;-78
2022/09/20 13:27:13;;;;;;;3.03;1.40;;;12.40;96.30;;;;;;4990717;28;20501;-79
2022/09/20 13:29:43;;;;;;;2.70;1.60;;;12.20;96.30;;;;;;4975750;28;20421;-78
2022/09/20 13:32:25;;;;;;;5.30;1.53;;;12.00;96.30;;;;;;4990730;28;20446;-79
2022/09/20 13:35:05;;;;;;;7.60;1.63;;;12.00;96.30;;;;;;4990464;28;20457;-78
2022/09/20 13:37:31;;;;;;;2.37;1.60;;;12.30;96.30;;;;;;4975838;28;20809;-79
2022/09/20 13:39:58;;;;;;;1.77;1.40;;;12.60;96.30;;;;;;4975489;28;20949;-82
2022/09/20 13:42:25;;;;;;;13.63;1.37;;;12.60;96.30;;;;;;4957909;28;20222;-78
2022/09/20 13:44:51;;;;;;;1.90;1.47;;;12.50;96.30;;;;;;4956391;28;20422;-78
2022/09/20 13:47:22;;;;;;;2.40;1.40;;;12.60;96.30;;;;;;4956063;28;20414;-78
2022/09/20 13:49:48;;;;;;;7.33;1.53;;;12.50;96.30;;;;;;4954477;28;20458;-79
2022/09/20 13:52:25;;;;;;;3.10;1.70;;;12.40;96.30;;;;;;4956069;28;20582;-78
2022/09/20 13:54:51;;;;;;;3.60;1.63;;;12.20;96.30;;;;;;4955560;28;20199;-81
2022/09/20 13:57:28;;;;;;;3.77;1.40;;;12.10;96.30;;;;;;4956065;28;20410;-78
2022/09/20 13:59:56;;;;;;;3.10;1.30;;;12.10;96.30;;;;;;4954776;28;20194;-82
2022/09/20 14:02:28;;;;;;;2.20;1.70;;;12.00;96.30;;;;;;4957827;29;20443;-81
2022/09/20 14:04:56;;;;;;;5.60;2.50;;;12.00;96.30;;;;;;4959722;28;20990;-81
2022/09/20 14:07:24;;;;;;;3.53;2.17;;;11.60;96.30;;;;;;4957830;29;20454;-82
2022/09/20 14:09:51;;;;;;;4.47;1.80;;;11.70;96.30;;;;;;4967959;28;20930;-82
2022/09/20 14:12:17;;;;;;;2.77;2.00;;;11.90;96.30;;;;;;4993454;28;20465;-82
2022/09/20 14:14:44;;;;;;;5.40;1.73;;;11.80;96.30;;;;;;4992952;28;20557;-82
2022/09/20 14:17:14;;;;;;;1.97;1.30;;;11.70;96.30;;;;;;4991060;28;20432;-83
2022/09/20 14:19:41;;;;;;;4.63;1.90;;;11.50;96.30;;;;;;4989722;28;20416;-77
2022/09/20 14:22:17;;;;;;;3.93;1.70;;;11.20;96.30;;;;;;4974830;28;20445;-76
2022/09/20 14:25:17;;;;;;;2.80;1.67;;;11.10;96.30;;;;;;4974854;28;20402;-75
2022/09/20 14:27:42;;;;;;;2.60;1.97;;;10.80;96.30;;;;;;4974851;28;20430;-79
2022/09/20 14:30:32;;;;;;;4.10;1.50;;;10.50;96.30;;;;;;4974494;28;20504;-80
2022/09/20 14:32:58;;;;;;;2.07;1.40;;;10.60;96.30;;;;;;4974245;28;20183;-78
2022/09/20 14:35:24;;;;;;;2.00;1.80;;;10.50;96.30;;;;;;4974851;28;20484;-78
2022/09/20 14:37:57;;;;;;;3.17;2.57;;;10.60;96.30;;;;;;4989753;28;20421;-78
2022/09/20 14:40:42;;;;;;;9.30;6.27;;;11.30;96.30;;;;;;4973562;28;20485;-79
2022/09/20 14:43:38;;;;;;;2.53;2.33;;;12.10;96.30;;;;;;4954250;29;20425;-78
2022/09/20 14:46:34;;;;;;;11.73;8.90;;;12.70;96.30;;;;;;4949984;29;21058;-79
2022/09/20 14:49:24;;;;;;;4.77;2.20;;;12.70;96.30;;;;;;4954025;29;20422;-78
2022/09/20 14:51:52;;;;;;;3.83;1.80;;;12.50;96.30;;;;;;4954050;29;20450;-79
2022/09/20 14:54:28;;;;;;;2.53;1.83;;;12.70;96.30;;;;;;4954010;29;20453;-80
2022/09/20 14:56:56;;;;;;;3.23;2.10;;;13.10;96.30;;;;;;4955330;28;20478;-79
2022/09/20 14:59:36;;;;;;;5.73;2.47;;;13.30;96.30;;;;;;4955176;28;20806;-79
2022/09/20 15:02:12;;;;;;;2.70;1.93;;;13.60;96.30;;;;;;4953841;28;20442;-79
2022/09/20 15:04:39;;;;;;;5.50;2.33;;;13.90;96.30;;;;;;4954083;29;20446;-81
2022/09/20 15:07:09;;;;;;;2.00;1.40;;;14.10;96.30;;;;;;4954096;29;20796;-79
2022/09/20 15:09:34;;;;;;;4.03;1.53;;;13.60;96.30;;;;;;4954942;28;20921;-79
2022/09/20 15:12:12;;;;;;;2.30;1.53;;;13.90;96.30;;;;;;4955181;28;20453;-81
2022/09/20 15:14:40;;;;;;;3.87;1.60;;;13.70;96.30;;;;;;4955037;28;20183;-79
2022/09/20 15:17:08;;;;;;;4.63;1.50;;;13.70;96.30;;;;;;4955129;28;20419;-80
2022/09/20 15:19:33;;;;;;;5.10;1.30;;;13.70;96.30;;;;;;4953326;29;20489;-79
2022/09/20 15:21:59;;;;;;;2.80;1.20;;;13.50;96.30;;;;;;4953507;29;20466;-79
2022/09/20 15:24:24;;;;;;;5.03;1.50;;;13.40;96.30;;;;;;4954915;28;20686;-79
2022/09/20 15:26:51;;;;;;;2.37;1.20;;;13.30;96.30;;;;;;4953694;29;20253;-82
2022/09/20 15:29:17;;;;;;;2.23;1.87;;;13.00;96.30;;;;;;4953490;28;20174;-79
2022/09/20 15:31:45;;;;;;;2.40;1.23;;;13.00;96.30;;;;;;4954890;28;20438;-82
2022/09/20 15:34:11;;;;;;;1.87;1.00;;;12.90;96.30;;;;;;4953637;29;20489;-79
2022/09/20 15:36:38;;;;;;;4.50;1.60;;;12.60;96.30;;;;;;4954718;28;20469;-79
2022/09/20 15:39:03;;;;;;;2.10;1.17;;;12.40;96.30;;;;;;4954549;28;20450;-79
2022/09/20 15:41:30;;;;;;;4.77;1.60;;;12.30;96.30;;;;;;4958176;28;20434;-81
2022/09/20 15:43:55;;;;;;;4.13;1.77;;;12.10;96.30;;;;;;4954558;28;20179;-80
2022/09/20 15:46:23;;;;;;;1.80;1.23;;;11.80;96.30;;;;;;4940941;28;20421;-83
2022/09/20 15:48:49;;;;;;;2.20;1.53;;;11.80;96.30;;;;;;4935126;29;20171;-79
2022/09/20 15:51:15;;;;;;;2.93;1.50;;;12.00;96.30;;;;;;4934005;29;21095;-79
2022/09/20 15:53:44;;;;;;;4.47;1.50;;;12.00;96.30;;;;;;4944339;29;20553;-79
2022/09/20 15:56:21;;;;;;;2.03;1.20;;;11.90;96.30;;;;;;4954190;28;20402;-81
2022/09/20 15:59:08;;;;;;;2.17;1.53;;;11.70;96.30;;;;;;4953733;28;20457;-79
2022/09/20 16:01:38;;;;;;;1.83;1.20;;;11.60;96.30;;;;;;4953037;29;20981;-79
2022/09/20 16:04:06;;;;;;;1.63;1.43;;;11.50;96.30;;;;;;4954205;28;20790;-80
2022/09/20 16:06:32;;;;;;;2.47;1.47;;;11.50;96.30;;;;;;4952992;28;20526;-80
2022/09/20 16:08:57;;;;;;;1.80;1.30;;;11.40;96.30;;;;;;4952498;28;20459;-79
2022/09/20 16:11:23;;;;;;;3.30;1.50;;;11.30;96.30;;;;;;4953947;28;20225;-80
2022/09/20 16:13:56;;;;;;;1.87;1.10;;;11.10;96.30;;;;;;4953867;28;20554;-79
2022/09/20 16:16:23;;;;;;;6.23;1.67;;;10.90;96.30;;;;;;4952932;29;20419;-76
2022/09/20 16:21:35;;;;;;;2.43;1.53;;;10.40;96.30;;;;;;4954128;29;20430;-79
2022/09/20 16:24:00;;;;;;;2.17;1.30;;;10.20;96.30;;;;;;4953702;28;20419;-78
2022/09/20 16:26:27;;;;;;;1.73;1.40;;;10.10;96.30;;;;;;4952800;29;20423;-79
2022/09/20 16:28:56;;;;;;;2.97;1.30;;;10.10;96.30;;;;;;4953822;28;20254;-79
2022/09/20 16:31:31;;;;;;;4.93;1.10;;;10.10;96.30;;;;;;4954044;28;20440;-79
2022/09/20 16:33:58;;;;;;;3.00;1.00;;;10.10;96.30;;;;;;4953843;28;20445;-81
2022/09/20 16:36:24;;;;;;;4.97;1.90;;;10.00;96.30;;;;;;4952613;29;20419;-79
2022/09/20 16:38:50;;;;;;;2.67;1.33;;;9.80;96.30;;;;;;4953469;28;20474;-81
2022/09/20 16:41:16;;;;;;;2.47;1.60;;;9.70;96.30;;;;;;4960692;28;20208;-78
2022/09/20 16:43:41;;;;;;;3.10;1.40;;;9.60;96.30;;;;;;4972959;28;20410;-78
2022/09/20 16:46:08;;;;;;;3.43;1.20;;;9.40;96.30;;;;;;4988050;28;20642;-79
2022/09/20 16:48:34;;;;;;;2.43;2.03;;;9.30;96.30;;;;;;4987376;28;20218;-81
2022/09/20 16:51:00;;;;;;;10.03;1.70;;;9.10;96.30;;;;;;4987922;28;21033;-80
2022/09/20 16:53:26;;;;;;;3.53;1.80;;;9.00;96.30;;;;;;4973279;28;20544;-78
2022/09/20 16:55:54;;;;;;;3.73;1.50;;;8.80;96.30;;;;;;4974377;28;20257;-81
2022/09/20 16:58:28;;;;;;;2.53;2.00;;;8.70;96.30;;;;;;4976735;28;20456;-81
2022/09/20 17:01:04;;;;;;;5.50;2.00;;;8.60;96.30;;;;;;4977297;28;20913;-83
2022/09/20 17:03:29;;;;;;;3.83;1.67;;;8.50;96.30;;;;;;4992520;28;20421;-78
2022/09/20 17:06:07;;;;;;;2.63;1.70;;;8.30;96.30;;;;;;4992524;28;21055;-78
2022/09/20 17:08:39;;;;;;;1.80;1.57;;;8.20;96.30;;;;;;4977216;28;20197;-80
2022/09/20 17:11:13;;;;;;;1.77;1.33;;;8.10;96.30;;;;;;4977014;28;20472;-79
2022/09/20 17:13:41;;;;;;;3.23;1.80;;;7.90;96.30;;;;;;4992357;28;20855;-78
2022/09/20 17:16:15;;;;;;;3.97;1.87;;;7.70;96.30;;;;;;4992810;28;20414;-79
2022/09/20 17:18:42;;;;;;;1.63;1.50;;;7.70;96.30;;;;;;4972681;28;20505;-80
2022/09/20 17:21:13;;;;;;;5.77;1.70;;;7.60;96.30;;;;;;4964056;28;20447;-79
2022/09/20 17:23:40;;;;;;;4.07;1.90;;;7.50;96.30;;;;;;4940387;29;20424;-79
2022/09/20 17:26:10;;;;;;;6.20;1.67;;;7.40;96.30;;;;;;4941066;29;20415;-79
2022/09/20 17:28:37;;;;;;;4.10;1.80;;;7.30;96.30;;;;;;4938357;29;20518;-79
2022/09/20 17:31:05;;;;;;;4.97;1.97;;;7.10;96.30;;;;;;4936875;29;20567;-80
2022/09/20 17:33:32;;;;;;;2.60;1.83;;;7.00;96.30;;;;;;4937784;29;20466;-80
2022/09/20 17:36:04;;;;;;;5.07;3.00;;;7.00;96.30;;;;;;4938463;29;20443;-79
2022/09/20 17:38:32;;;;;;;4.07;2.37;;;7.00;96.30;;;;;;4935862;29;20415;-78
2022/09/20 17:41:12;;;;;;;6.70;5.07;;;7.00;96.30;;;;;;4947417;28;20446;-79
2022/09/20 17:43:39;;;;;;;11.97;6.13;;;6.90;96.30;;;;;;4975712;28;20397;-78
2022/09/20 17:46:11;;;;;;;11.27;9.90;;;6.70;96.30;;;;;;4975598;28;20413;-78
2022/09/20 17:48:38;;;;;;;12.37;10.37;;;6.70;96.30;;;;;;4973669;28;20505;-78
2022/09/20 17:51:04;;;;;;;12.03;9.33;;;6.60;96.30;;;;;;4974497;28;20437;-78
2022/09/20 17:53:31;;;;;;;7.73;6.80;;;6.60;96.30;;;;;;4975299;28;20468;-78
2022/09/20 17:55:58;;;;;;;10.40;7.00;;;6.60;96.30;;;;;;4990198;28;20849;-78
2022/09/20 17:58:24;;;;;;;8.67;7.77;;;6.70;96.30;;;;;;4984841;28;20497;-80
2022/09/20 18:55:08;;;;;;;16.23;3.47;;;7.20;96.30;;;;;;4951729;28;20486;-78
2022/09/20 18:57:33;;;;;;;5.17;3.63;;;7.20;96.30;;;;;;4954241;29;20478;-79
2022/09/20 18:59:59;;;;;;;5.40;3.27;;;7.10;96.30;;;;;;4953756;28;20179;-78
2022/09/20 19:02:45;;;;;;;7.47;3.00;;;7.00;96.30;;;;;;4937640;28;20191;-79
2022/09/20 19:05:21;;;;;;;4.83;2.83;;;7.00;96.30;;;;;;4936304;29;20167;-78
2022/09/20 19:07:57;;;;;;;6.47;2.10;;;6.90;96.30;;;;;;4934431;29;20857;-80
2022/09/20 19:10:50;;;;;;;7.33;2.40;;;6.70;96.30;;;;;;4934751;29;20423;-79
2022/09/20 19:13:46;;;;;;;3.83;2.70;;;6.70;96.30;;;;;;4935736;29;20451;-78
2022/09/20 19:16:18;;;;;;;5.40;2.53;;;6.60;96.30;;;;;;4935915;29;20476;-78
2022/09/20 19:19:09;;;;;;;7.07;2.50;;;6.50;96.30;;;;;;4934927;29;20450;-79
2022/09/20 19:22:19;;;;;;;3.50;2.53;;;6.40;96.30;;;;;;4934397;29;20531;-78
2022/09/20 19:25:06;;;;;;;4.03;2.47;;;6.30;96.30;;;;;;4927254;29;20423;-78
2022/09/20 19:27:31;;;;;;;4.80;2.43;;;6.40;96.30;;;;;;4934444;29;20955;-80
2022/09/20 19:29:57;;;;;;;3.17;2.40;;;6.50;96.30;;;;;;4935757;29;20412;-78